createdAt,value
2022-10-07T00:00:55.078Z,5.70
2022-10-07T00:03:23.394Z,4.67
2022-10-07T00:06:20.084Z,4.70
2022-10-07T00:08:49.182Z,5.30
2022-10-07T00:11:23.849Z,5.40
2022-10-07T00:13:56.219Z,5.67
2022-10-07T00:16:26.271Z,6.00
2022-10-07T00:18:56.527Z,5.70
2022-10-07T00:21:24.227Z,6.60
2022-10-07T00:23:51.127Z,7.20
2022-10-07T00:26:22.509Z,6.60
2022-10-07T00:28:49.310Z,6.73
2022-10-07T00:31:19.055Z,6.70
2022-10-07T00:33:45.763Z,6.40
2022-10-07T00:36:27.306Z,6.60
2022-10-07T00:38:56.695Z,6.23
2022-10-07T00:41:50.301Z,6.07
2022-10-07T00:44:31.859Z,6.10
2022-10-07T00:46:59.459Z,6.53
2022-10-07T00:49:28.209Z,7.03
2022-10-07T00:51:54.591Z,6.00
2022-10-07T00:54:21.129Z,6.13
2022-10-07T00:56:49.407Z,6.53
2022-10-07T00:59:17.894Z,6.40
2022-10-07T01:01:44.460Z,6.40
2022-10-07T01:04:12.570Z,6.37
2022-10-07T01:06:39.386Z,5.70
2022-10-07T01:09:06.452Z,6.20
2022-10-07T01:11:38.955Z,6.30
2022-10-07T01:14:30.895Z,5.70
2022-10-07T01:17:06.620Z,6.17
2022-10-07T01:19:41.934Z,5.63
2022-10-07T01:22:33.136Z,5.90
2022-10-07T01:25:32.115Z,5.20
2022-10-07T01:28:09.666Z,5.10
2022-10-07T01:30:40.729Z,5.63
2022-10-07T01:33:12.412Z,4.90
2022-10-07T01:35:42.486Z,5.20
2022-10-07T01:38:11.032Z,5.17
2022-10-07T01:40:41.588Z,4.17
2022-10-07T01:43:08.093Z,4.70
2022-10-07T01:45:36.451Z,4.17
2022-10-07T01:48:04.207Z,4.70
2022-10-07T01:50:31.173Z,4.33
2022-10-07T01:53:29.764Z,4.80
2022-10-07T01:56:02.448Z,4.83
2022-10-07T01:59:06.782Z,3.70
2022-10-07T02:01:52.529Z,4.13
2022-10-07T02:04:23.952Z,3.67
2022-10-07T02:07:15.547Z,3.30
2022-10-07T02:09:50.747Z,4.50
2022-10-07T02:12:46.446Z,3.80
2022-10-07T02:15:26.388Z,4.53
2022-10-07T02:17:58.519Z,3.53
2022-10-07T02:20:29.763Z,3.47
2022-10-07T02:22:58.772Z,3.23
2022-10-07T02:25:27.692Z,3.50
2022-10-07T02:27:54.999Z,3.03
2022-10-07T02:30:22.411Z,3.17
2022-10-07T02:32:55.100Z,3.27
2022-10-07T02:35:31.801Z,3.00
2022-10-07T02:38:00.840Z,2.87
2022-10-07T02:40:34.569Z,2.80
2022-10-07T02:43:08.348Z,2.80
2022-10-07T02:45:43.250Z,3.40
2022-10-07T02:48:18.168Z,2.67
2022-10-07T02:50:48.987Z,2.97
2022-10-07T02:53:16.186Z,3.17
2022-10-07T02:55:43.758Z,2.97
2022-10-07T02:58:11.882Z,3.33
2022-10-07T03:00:39.807Z,2.63
2022-10-07T03:03:06.277Z,2.77
2022-10-07T03:05:34.365Z,2.93
2022-10-07T03:08:11.253Z,3.53
2022-10-07T03:10:38.624Z,2.70
2022-10-07T03:13:05.890Z,2.30
2022-10-07T03:15:39.743Z,3.20
2022-10-07T03:18:25.995Z,2.73
2022-10-07T03:20:56.444Z,2.93
2022-10-07T03:23:24.684Z,3.03
2022-10-07T03:25:51.999Z,3.00
2022-10-07T03:28:23.083Z,2.67
2022-10-07T03:30:50.408Z,2.60
2022-10-07T03:33:19.009Z,2.80
2022-10-07T03:35:45.894Z,3.27
2022-10-07T03:38:12.385Z,3.07
2022-10-07T03:40:39.102Z,2.80
2022-10-07T03:43:07.228Z,2.77
2022-10-07T03:45:37.414Z,2.40
2022-10-07T03:48:04.059Z,3.00
2022-10-07T03:50:30.435Z,2.53
2022-10-07T03:52:56.849Z,3.37
2022-10-07T03:55:23.290Z,2.67
2022-10-07T03:57:59.606Z,2.70
2022-10-07T04:00:26.630Z,2.80
2022-10-07T04:02:53.557Z,2.80
2022-10-07T04:05:20.989Z,3.20
2022-10-07T04:07:49.283Z,3.40
2022-10-07T04:10:17.229Z,3.37
2022-10-07T04:12:44.173Z,2.93
2022-10-07T04:15:14.460Z,2.93
2022-10-07T04:17:41.545Z,2.47
2022-10-07T04:20:08.804Z,3.63
2022-10-07T04:22:35.304Z,4.00
2022-10-07T04:25:20.176Z,3.50
2022-10-07T04:27:52.495Z,3.20
2022-10-07T04:30:18.995Z,3.23
2022-10-07T04:32:45.476Z,3.10
2022-10-07T04:35:12.112Z,3.20
2022-10-07T04:37:38.521Z,3.67
2022-10-07T04:40:05.272Z,3.17
2022-10-07T04:42:50.423Z,3.40
2022-10-07T04:45:16.852Z,3.67
2022-10-07T04:47:45.224Z,3.70
2022-10-07T04:50:12.788Z,3.17
2022-10-07T04:52:42.963Z,3.43
2022-10-07T04:55:14.203Z,3.50
2022-10-07T04:57:41.121Z,3.70
2022-10-07T05:00:09.170Z,3.40
2022-10-07T05:02:36.402Z,4.23
2022-10-07T05:05:03.844Z,5.83
2022-10-07T05:07:31.959Z,3.70
2022-10-07T05:09:59.491Z,3.87
2022-10-07T05:12:27.405Z,3.80
2022-10-07T05:14:53.793Z,4.20
2022-10-07T05:17:20.402Z,3.87
2022-10-07T05:19:47.008Z,4.80
2022-10-07T05:22:13.562Z,3.93
2022-10-07T05:24:39.988Z,3.40
2022-10-07T05:27:06.510Z,4.70
2022-10-07T05:29:33.097Z,4.20
2022-10-07T05:32:03.980Z,3.60
2022-10-07T05:34:31.570Z,3.73
2022-10-07T05:36:59.490Z,3.10
2022-10-07T05:39:25.921Z,4.93
2022-10-07T05:41:52.497Z,4.27
2022-10-07T05:44:18.966Z,4.20
2022-10-07T05:46:45.361Z,4.00
2022-10-07T05:49:12.172Z,5.03
2022-10-07T05:51:38.549Z,4.47
2022-10-07T05:54:04.982Z,4.93
2022-10-07T05:56:32.325Z,4.20
2022-10-07T05:58:58.805Z,4.73
2022-10-07T06:01:27.633Z,4.40
2022-10-07T06:03:57.188Z,5.10
2022-10-07T06:06:24.618Z,4.50
2022-10-07T06:08:51.921Z,4.70
2022-10-07T06:11:37.527Z,3.80
2022-10-07T06:14:04.483Z,4.60
2022-10-07T06:16:31.248Z,5.07
2022-10-07T06:18:57.855Z,4.93
2022-10-07T06:21:27.855Z,4.37
2022-10-07T06:23:55.676Z,4.77
2022-10-07T06:26:22.381Z,4.70
2022-10-07T06:28:48.939Z,5.13
2022-10-07T06:31:22.118Z,4.77
2022-10-07T06:33:49.495Z,4.97
2022-10-07T06:36:15.902Z,4.27
2022-10-07T06:38:46.705Z,4.57
2022-10-07T06:41:13.563Z,4.40
2022-10-07T06:43:39.992Z,4.50
2022-10-07T06:46:07.817Z,4.20
2022-10-07T06:48:34.993Z,4.60
2022-10-07T06:51:04.829Z,4.27
2022-10-07T06:53:32.317Z,4.57
2022-10-07T06:56:06.004Z,4.47
2022-10-07T06:58:33.755Z,4.57
2022-10-07T07:01:00.794Z,5.27
2022-10-07T07:03:27.538Z,5.30
2022-10-07T07:05:56.882Z,6.07
2022-10-07T07:08:31.825Z,4.60
2022-10-07T07:11:26.781Z,7.07
2022-10-07T07:13:54.252Z,4.17
2022-10-07T07:16:20.755Z,8.40
2022-10-07T07:18:54.265Z,7.13
2022-10-07T07:21:21.332Z,4.03
2022-10-07T07:23:48.025Z,4.07
2022-10-07T07:26:14.545Z,4.07
2022-10-07T07:28:41.262Z,6.10
2022-10-07T07:31:15.499Z,5.50
2022-10-07T07:33:41.975Z,4.93
2022-10-07T07:36:16.555Z,5.40
2022-10-07T07:38:43.951Z,9.63
2022-10-07T07:41:10.902Z,12.07
2022-10-07T07:43:37.343Z,6.37
2022-10-07T07:46:04.875Z,5.93
2022-10-07T07:48:31.447Z,5.77
2022-10-07T07:51:10.084Z,5.13
2022-10-07T07:53:39.915Z,3.70
2022-10-07T07:56:09.832Z,4.50
2022-10-07T07:58:36.560Z,4.73
2022-10-07T08:01:12.083Z,3.93
2022-10-07T08:03:41.843Z,3.70
2022-10-07T08:06:09.753Z,3.50
2022-10-07T08:08:36.725Z,3.33
2022-10-07T08:11:10.950Z,3.60
2022-10-07T08:13:39.664Z,3.73
2022-10-07T08:16:06.343Z,3.50
2022-10-07T08:18:32.828Z,3.57
2022-10-07T08:21:01.456Z,3.70
2022-10-07T08:23:30.117Z,3.00
2022-10-07T08:25:57.381Z,3.00
2022-10-07T08:28:24.719Z,4.17
2022-10-07T08:30:51.842Z,3.43
2022-10-07T08:33:19.075Z,2.87
2022-10-07T08:35:57.442Z,2.87
2022-10-07T08:38:23.871Z,3.23
2022-10-07T08:40:51.789Z,2.80
2022-10-07T08:43:21.246Z,2.77
2022-10-07T08:45:48.159Z,2.80
2022-10-07T08:48:20.415Z,3.10
2022-10-07T08:50:50.543Z,2.43
2022-10-07T08:53:21.087Z,2.77
2022-10-07T08:56:12.974Z,3.53
2022-10-07T08:58:55.266Z,2.40
2022-10-07T09:01:32.684Z,2.97
2022-10-07T09:04:31.159Z,2.63
2022-10-07T09:07:14.559Z,2.53
2022-10-07T09:09:47.007Z,2.60
2022-10-07T09:12:22.832Z,2.10
2022-10-07T09:14:52.811Z,3.03
2022-10-07T09:17:26.354Z,2.63
2022-10-07T09:19:58.233Z,2.50
2022-10-07T09:22:36.178Z,2.80
2022-10-07T09:25:18.633Z,2.77
2022-10-07T09:27:45.263Z,2.47
2022-10-07T09:30:15.451Z,2.33
2022-10-07T09:32:45.134Z,2.87
2022-10-07T09:35:20.010Z,2.50
2022-10-07T09:38:15.864Z,2.43
2022-10-07T09:41:04.980Z,2.77
2022-10-07T09:43:32.679Z,3.03
2022-10-07T09:46:00.736Z,2.97
2022-10-07T09:48:33.703Z,3.43
2022-10-07T09:51:13.276Z,2.93
2022-10-07T09:53:56.358Z,2.90
2022-10-07T09:56:43.630Z,3.20
2022-10-07T09:59:36.577Z,2.47
2022-10-07T10:02:16.701Z,3.13
2022-10-07T10:04:54.479Z,2.50
2022-10-07T10:07:23.809Z,2.50
2022-10-07T10:09:55.999Z,2.60
2022-10-07T10:12:24.351Z,2.90
2022-10-07T10:14:53.647Z,2.27
2022-10-07T10:17:21.711Z,2.43
2022-10-07T10:19:48.411Z,3.13
2022-10-07T10:22:27.199Z,2.60
2022-10-07T10:25:13.421Z,2.43
2022-10-07T10:28:09.186Z,2.23
2022-10-07T10:30:43.051Z,2.10
2022-10-07T10:33:17.963Z,3.50
2022-10-07T10:36:10.220Z,2.60
2022-10-07T10:38:47.630Z,2.83
2022-10-07T10:41:27.347Z,2.43
2022-10-07T10:44:32.190Z,2.27
2022-10-07T10:47:04.069Z,2.40
2022-10-07T10:49:38.669Z,2.07
2022-10-07T10:52:28.002Z,2.30
2022-10-07T10:55:14.145Z,2.60
2022-10-07T10:57:46.717Z,2.80
2022-10-07T11:00:15.309Z,2.70
2022-10-07T11:03:05.996Z,2.30
2022-10-07T11:05:40.292Z,2.97
2022-10-07T11:08:20.007Z,2.47
2022-10-07T11:10:56.369Z,3.20
2022-10-07T11:13:31.167Z,2.20
2022-10-07T11:16:08.558Z,2.77
2022-10-07T11:18:45.802Z,1.80
2022-10-07T11:21:18.160Z,1.73
2022-10-07T11:23:51.707Z,1.90
2022-10-07T11:26:50.962Z,2.50
2022-10-07T11:29:42.309Z,2.00
2022-10-07T11:32:31.556Z,1.83
2022-10-07T11:35:19.855Z,2.63
2022-10-07T11:37:54.817Z,2.27
2022-10-07T11:40:26.860Z,2.30
2022-10-07T11:42:57.532Z,1.90
2022-10-07T11:45:27.290Z,1.70
2022-10-07T11:48:00.174Z,2.50
2022-10-07T11:50:29.658Z,2.37
2022-10-07T11:53:01.429Z,1.87
2022-10-07T11:55:44.307Z,2.13
2022-10-07T11:58:24.007Z,1.97
2022-10-07T12:00:50.455Z,1.73
2022-10-07T12:03:20.147Z,1.87
2022-10-07T12:05:49.350Z,2.30
2022-10-07T12:08:31.104Z,2.37
2022-10-07T12:11:12.840Z,1.90
2022-10-07T12:13:40.599Z,2.57
2022-10-07T12:16:30.173Z,2.23
2022-10-07T12:19:10.580Z,2.27
2022-10-07T12:21:57.918Z,1.73
2022-10-07T12:24:24.376Z,1.80
2022-10-07T12:26:51.038Z,2.10
2022-10-07T12:29:29.841Z,2.07
2022-10-07T12:31:59.288Z,2.40
2022-10-07T12:34:40.259Z,1.70
2022-10-07T12:37:47.110Z,1.97
2022-10-07T12:40:20.614Z,2.10
2022-10-07T12:43:12.868Z,1.70
2022-10-07T12:45:45.240Z,2.00
2022-10-07T12:48:22.055Z,2.00
2022-10-07T12:50:55.973Z,1.90
2022-10-07T12:53:26.982Z,1.90
2022-10-07T12:55:58.778Z,2.00
2022-10-07T12:59:01.903Z,2.13
2022-10-07T13:02:09.222Z,1.87
2022-10-07T13:04:59.394Z,1.87
2022-10-07T13:07:50.021Z,2.23
2022-10-07T13:10:34.084Z,2.10
2022-10-07T13:13:07.839Z,2.20
2022-10-07T13:15:49.359Z,2.63
2022-10-07T13:19:14.537Z,2.27
2022-10-07T13:21:49.399Z,2.30
2022-10-07T13:24:18.631Z,2.10
2022-10-07T13:26:46.130Z,1.73
2022-10-07T13:29:23.943Z,2.33
2022-10-07T13:32:09.566Z,2.10
2022-10-07T13:34:36.127Z,2.03
2022-10-07T13:37:03.054Z,2.10
2022-10-07T13:39:31.354Z,1.80
2022-10-07T13:41:59.890Z,1.90
2022-10-07T13:44:28.749Z,2.10
2022-10-07T13:47:00.519Z,2.33
2022-10-07T13:49:34.169Z,1.87
2022-10-07T13:52:02.342Z,2.60
2022-10-07T13:54:31.048Z,2.33
2022-10-07T13:56:57.816Z,1.87
2022-10-07T13:59:24.539Z,1.60
2022-10-07T14:01:53.451Z,2.17
2022-10-07T14:04:32.872Z,1.90
2022-10-07T14:07:12.036Z,1.93
2022-10-07T14:09:48.616Z,2.13
2022-10-07T14:12:27.204Z,2.30
2022-10-07T14:15:01.537Z,2.37
2022-10-07T14:17:33.045Z,1.93
2022-10-07T14:20:05.926Z,2.00
2022-10-07T14:22:41.452Z,1.50
2022-10-07T14:25:21.069Z,1.53
2022-10-07T14:27:53.728Z,1.77
2022-10-07T14:30:56.793Z,1.70
2022-10-07T14:34:02.304Z,1.40
2022-10-07T14:36:29.194Z,2.03
2022-10-07T14:39:03.642Z,1.93
2022-10-07T14:41:30.800Z,2.37
2022-10-07T14:44:00.580Z,2.23
2022-10-07T14:46:28.485Z,1.97
2022-10-07T14:48:55.152Z,1.70
2022-10-07T14:51:29.487Z,2.57
2022-10-07T14:54:05.376Z,2.00
2022-10-07T14:56:34.330Z,1.83
2022-10-07T14:59:01.067Z,1.80
2022-10-07T15:01:29.695Z,2.00
2022-10-07T15:03:57.278Z,2.00
2022-10-07T15:06:23.897Z,1.83
2022-10-07T15:08:50.331Z,1.83
2022-10-07T15:11:18.823Z,2.47
2022-10-07T15:13:50.028Z,1.70
2022-10-07T15:16:27.035Z,1.97
2022-10-07T15:18:53.527Z,1.90
2022-10-07T15:21:23.272Z,1.70
2022-10-07T15:23:51.708Z,1.77
2022-10-07T15:26:19.123Z,1.93
2022-10-07T15:28:50.350Z,1.90
2022-10-07T15:31:17.646Z,1.40
2022-10-07T15:33:44.483Z,1.67
2022-10-07T15:36:13.072Z,1.80
2022-10-07T15:38:45.181Z,1.53
2022-10-07T15:41:28.629Z,2.17
2022-10-07T15:43:57.052Z,1.87
2022-10-07T15:46:24.327Z,1.93
2022-10-07T15:48:54.828Z,1.80
2022-10-07T15:51:21.302Z,1.80
2022-10-07T15:53:47.778Z,1.70
2022-10-07T15:56:14.321Z,1.70
2022-10-07T15:58:43.381Z,1.53
2022-10-07T16:01:10.576Z,1.60
2022-10-07T16:03:41.083Z,1.50
2022-10-07T16:06:10.165Z,2.10
2022-10-07T16:08:36.999Z,1.87
2022-10-07T16:11:05.152Z,1.90
2022-10-07T16:13:34.884Z,1.70
2022-10-07T16:16:03.885Z,1.70
2022-10-07T16:18:38.934Z,2.03
2022-10-07T16:21:12.734Z,2.23
2022-10-07T16:23:41.149Z,2.10
2022-10-07T16:26:10.139Z,1.80
2022-10-07T16:28:59.397Z,2.13
2022-10-07T16:31:26.360Z,2.37
2022-10-07T16:33:54.034Z,1.83
2022-10-07T16:36:22.219Z,3.80
2022-10-07T16:38:49.574Z,4.27
2022-10-07T16:41:16.897Z,4.33
2022-10-07T16:43:47.001Z,2.23
2022-10-07T16:46:21.485Z,2.20
2022-10-07T16:48:49.095Z,1.90
2022-10-07T16:51:18.008Z,2.37
2022-10-07T16:53:46.470Z,3.17
2022-10-07T16:56:13.556Z,3.43
2022-10-07T16:58:40.263Z,5.13
2022-10-07T17:01:12.587Z,3.73
2022-10-07T17:03:40.190Z,2.80
2022-10-07T17:06:08.033Z,2.50
2022-10-07T17:08:39.975Z,4.80
2022-10-07T17:11:28.443Z,8.13
2022-10-07T17:14:12.316Z,14.20
2022-10-07T17:16:42.124Z,7.90
2022-10-07T17:19:11.932Z,6.30
2022-10-07T17:21:40.003Z,3.87
2022-10-07T17:24:06.497Z,3.80
2022-10-07T17:26:33.103Z,3.70
2022-10-07T17:29:06.545Z,3.53
2022-10-07T17:31:34.327Z,2.60
2022-10-07T17:34:03.193Z,2.87
2022-10-07T17:36:30.242Z,2.93
2022-10-07T17:38:56.686Z,3.33
2022-10-07T17:41:25.595Z,2.70
2022-10-07T17:43:53.551Z,3.23
2022-10-07T17:46:20.715Z,2.87
2022-10-07T17:48:48.895Z,2.60
2022-10-07T17:51:16.486Z,2.07
2022-10-07T17:53:43.131Z,2.83
2022-10-07T17:56:11.186Z,2.60
2022-10-07T17:58:39.187Z,2.40
2022-10-07T18:01:23.927Z,2.40
2022-10-07T18:04:12.736Z,2.60
2022-10-07T18:06:39.566Z,2.40
2022-10-07T18:09:07.851Z,2.70
2022-10-07T18:11:52.822Z,2.97
2022-10-07T18:14:37.996Z,2.53
2022-10-07T18:17:05.466Z,2.80
2022-10-07T18:19:32.073Z,3.00
2022-10-07T18:21:58.624Z,2.77
2022-10-07T18:24:28.069Z,2.83
2022-10-07T18:26:55.415Z,3.17
2022-10-07T18:29:21.835Z,3.10
2022-10-07T18:31:48.433Z,2.70
2022-10-07T18:34:14.980Z,2.30
2022-10-07T18:36:41.349Z,2.70
2022-10-07T18:39:10.319Z,2.80
2022-10-07T18:41:36.670Z,2.93
2022-10-07T18:44:03.062Z,2.60
2022-10-07T18:46:29.557Z,2.57
2022-10-07T18:48:56.035Z,2.77
2022-10-07T18:51:22.646Z,2.90
2022-10-07T18:53:49.034Z,2.30
2022-10-07T18:56:21.212Z,3.07
2022-10-07T18:58:49.589Z,2.47
2022-10-07T19:01:17.857Z,3.17
2022-10-07T19:03:44.957Z,2.60
2022-10-07T19:06:17.125Z,3.50
2022-10-07T19:08:43.609Z,3.07
2022-10-07T19:11:11.993Z,2.30
2022-10-07T19:13:51.910Z,2.67
2022-10-07T19:16:22.659Z,2.60
2022-10-07T19:18:51.785Z,3.43
2022-10-07T19:21:19.914Z,2.93
2022-10-07T19:23:51.122Z,3.10
2022-10-07T19:26:21.524Z,3.43
2022-10-07T19:28:48.893Z,4.10
2022-10-07T19:31:18.343Z,3.83
2022-10-07T19:33:45.778Z,3.57
2022-10-07T19:36:13.997Z,4.00
2022-10-07T19:38:44.469Z,3.33
2022-10-07T19:41:13.640Z,4.00
2022-10-07T19:43:40.726Z,4.80
2022-10-07T19:46:07.988Z,3.60
2022-10-07T19:48:34.753Z,3.87
2022-10-07T19:51:06.550Z,4.37
2022-10-07T19:53:36.431Z,4.30
2022-10-07T19:56:05.143Z,4.37
2022-10-07T19:58:31.701Z,4.43
2022-10-07T20:01:09.651Z,3.90
2022-10-07T20:03:37.029Z,3.67
2022-10-07T20:06:11.222Z,4.00
2022-10-07T20:08:39.633Z,4.00
2022-10-07T20:11:06.786Z,3.83
2022-10-07T20:13:35.588Z,3.87
2022-10-07T20:16:04.839Z,3.60
2022-10-07T20:18:35.160Z,3.57
2022-10-07T20:21:03.538Z,4.07
2022-10-07T20:23:37.352Z,3.87
2022-10-07T20:26:17.803Z,3.80
2022-10-07T20:28:45.611Z,4.00
2022-10-07T20:31:13.195Z,4.37
2022-10-07T20:33:41.961Z,4.23
2022-10-07T20:36:09.857Z,4.47
2022-10-07T20:38:56.021Z,4.40
2022-10-07T20:41:41.481Z,5.00
2022-10-07T20:44:08.289Z,4.13
2022-10-07T20:46:37.641Z,3.97
2022-10-07T20:49:24.624Z,3.53
2022-10-07T20:51:59.495Z,3.80
2022-10-07T20:54:26.846Z,4.30
2022-10-07T20:56:59.386Z,3.70
2022-10-07T20:59:30.508Z,3.67
2022-10-07T21:01:58.039Z,3.37
2022-10-07T21:04:28.699Z,3.87
2022-10-07T21:06:56.499Z,3.30
2022-10-07T21:09:23.603Z,3.67
2022-10-07T21:11:50.090Z,3.43
2022-10-07T21:14:17.313Z,3.50
2022-10-07T21:16:44.274Z,3.80
2022-10-07T21:19:10.677Z,3.27
2022-10-07T21:21:37.083Z,3.43
2022-10-07T21:24:03.678Z,3.60
2022-10-07T21:26:30.088Z,3.37
2022-10-07T21:28:56.504Z,3.27
2022-10-07T21:31:22.964Z,3.63
2022-10-07T21:33:50.823Z,3.30
2022-10-07T21:36:24.180Z,3.53
2022-10-07T21:38:55.953Z,4.20
2022-10-07T21:41:27.837Z,3.33
2022-10-07T21:43:55.877Z,3.47
2022-10-07T21:46:23.921Z,2.93
2022-10-07T21:48:50.933Z,3.50
2022-10-07T21:51:17.695Z,3.40
2022-10-07T21:53:45.677Z,3.43
2022-10-07T21:56:13.473Z,3.27
2022-10-07T21:58:39.907Z,3.17
2022-10-07T22:01:08.793Z,2.70
2022-10-07T22:03:35.407Z,3.23
2022-10-07T22:06:06.741Z,2.83
2022-10-07T22:08:37.059Z,4.00
2022-10-07T22:11:15.388Z,3.27
2022-10-07T22:13:51.647Z,3.13
2022-10-07T22:16:19.168Z,3.30
2022-10-07T22:18:49.368Z,3.13
2022-10-07T22:21:19.326Z,3.77
2022-10-07T22:23:55.812Z,3.27
2022-10-07T22:26:24.512Z,3.33
2022-10-07T22:28:51.351Z,3.67
2022-10-07T22:31:18.536Z,3.77
2022-10-07T22:33:50.544Z,3.70
2022-10-07T22:36:17.089Z,3.43
2022-10-07T22:38:43.469Z,3.30
2022-10-07T22:41:12.330Z,3.23
2022-10-07T22:43:39.644Z,3.20
2022-10-07T22:46:06.655Z,3.40
2022-10-07T22:48:33.901Z,2.93
2022-10-07T22:51:08.656Z,3.07
2022-10-07T22:53:36.463Z,3.17
2022-10-07T22:56:04.121Z,4.23
2022-10-07T22:58:30.535Z,3.23
2022-10-07T23:00:56.950Z,3.17
2022-10-07T23:03:23.838Z,3.53
2022-10-07T23:05:50.715Z,2.83
2022-10-07T23:08:17.086Z,3.63
2022-10-07T23:10:43.444Z,3.63
2022-10-07T23:13:09.826Z,3.33
2022-10-07T23:15:36.230Z,3.50
2022-10-07T23:18:02.661Z,3.73
2022-10-07T23:20:29.141Z,3.40
2022-10-07T23:22:55.579Z,3.40
2022-10-07T23:25:21.971Z,3.57
2022-10-07T23:27:48.570Z,3.77
2022-10-07T23:30:15.065Z,3.63
2022-10-07T23:32:45.791Z,3.70
2022-10-07T23:35:12.513Z,3.73
2022-10-07T23:37:38.911Z,3.43
2022-10-07T23:40:05.901Z,3.50
2022-10-07T23:42:32.281Z,3.63
2022-10-07T23:45:03.202Z,3.40
2022-10-07T23:47:29.641Z,3.80
2022-10-07T23:49:56.068Z,3.50
2022-10-07T23:52:22.489Z,3.60
2022-10-07T23:54:49.343Z,3.97
2022-10-07T23:57:15.729Z,3.87
2022-10-07T23:59:42.151Z,3.67
